sensor_id;sensor_type;location;lat;lon;timestamp;P1;durP1;ratioP1;P2;durP2;ratioP2
3347;SDS011;1687;49.540;8.574;2024-01-07T00:01:02;15.73;;;7.10;;
3347;SDS011;1687;49.540;8.574;2024-01-07T00:03:27;15.20;;;5.77;;
3347;SDS011;1687;49.540;8.574;2024-01-07T00:05:53;14.50;;;6.43;;
3347;SDS011;1687;49.540;8.574;2024-01-07T00:08:19;13.20;;;7.47;;
3347;SDS011;1687;49.540;8.574;2024-01-07T00:10:46;11.70;;;6.37;;
3347;SDS011;1687;49.540;8.574;2024-01-07T00:13:11;14.43;;;6.53;;
3347;SDS011;1687;49.540;8.574;2024-01-07T00:15:37;17.43;;;7.13;;
3347;SDS011;1687;49.540;8.574;2024-01-07T00:18:02;14.23;;;6.27;;
3347;SDS011;1687;49.540;8.574;2024-01-07T00:20:28;19.63;;;7.00;;
3347;SDS011;1687;49.540;8.574;2024-01-07T00:22:54;15.17;;;6.40;;
3347;SDS011;1687;49.540;8.574;2024-01-07T00:25:21;11.53;;;6.23;;
3347;SDS011;1687;49.540;8.574;2024-01-07T00:27:47;19.57;;;7.37;;
3347;SDS011;1687;49.540;8.574;2024-01-07T00:30:12;18.60;;;7.20;;
3347;SDS011;1687;49.540;8.574;2024-01-07T00:32:38;15.30;;;6.50;;
3347;SDS011;1687;49.540;8.574;2024-01-07T00:35:04;17.50;;;7.10;;
3347;SDS011;1687;49.540;8.574;2024-01-07T00:37:30;14.53;;;6.40;;
3347;SDS011;1687;49.540;8.574;2024-01-07T00:39:56;16.43;;;6.70;;
3347;SDS011;1687;49.540;8.574;2024-01-07T00:42:22;13.27;;;6.50;;
3347;SDS011;1687;49.540;8.574;2024-01-07T00:44:47;18.60;;;6.43;;
3347;SDS011;1687;49.540;8.574;2024-01-07T00:47:13;18.43;;;7.40;;
3347;SDS011;1687;49.540;8.574;2024-01-07T00:49:39;16.70;;;7.00;;
3347;SDS011;1687;49.540;8.574;2024-01-07T00:52:05;18.40;;;7.73;;
3347;SDS011;1687;49.540;8.574;2024-01-07T00:54:31;15.20;;;6.30;;
3347;SDS011;1687;49.540;8.574;2024-01-07T00:56:57;17.27;;;7.10;;
3347;SDS011;1687;49.540;8.574;2024-01-07T00:59:23;13.80;;;6.03;;
3347;SDS011;1687;49.540;8.574;2024-01-07T01:01:48;11.83;;;5.33;;
3347;SDS011;1687;49.540;8.574;2024-01-07T01:04:14;14.10;;;5.97;;
3347;SDS011;1687;49.540;8.574;2024-01-07T01:06:39;11.00;;;5.53;;
3347;SDS011;1687;49.540;8.574;2024-01-07T01:09:05;17.73;;;7.80;;
3347;SDS011;1687;49.540;8.574;2024-01-07T01:11:31;14.43;;;7.30;;
3347;SDS011;1687;49.540;8.574;2024-01-07T01:13:57;14.17;;;6.00;;
3347;SDS011;1687;49.540;8.574;2024-01-07T01:16:22;15.03;;;6.07;;
3347;SDS011;1687;49.540;8.574;2024-01-07T01:18:49;13.33;;;5.63;;
3347;SDS011;1687;49.540;8.574;2024-01-07T01:21:15;13.23;;;5.50;;
3347;SDS011;1687;49.540;8.574;2024-01-07T01:23:40;9.37;;;5.33;;
3347;SDS011;1687;49.540;8.574;2024-01-07T01:26:06;8.57;;;4.60;;
3347;SDS011;1687;49.540;8.574;2024-01-07T01:28:32;13.63;;;5.90;;
3347;SDS011;1687;49.540;8.574;2024-01-07T01:30:57;10.10;;;5.70;;
3347;SDS011;1687;49.540;8.574;2024-01-07T01:33:23;12.00;;;5.60;;
3347;SDS011;1687;49.540;8.574;2024-01-07T01:35:49;16.27;;;6.60;;
3347;SDS011;1687;49.540;8.574;2024-01-07T01:38:15;13.50;;;5.23;;
3347;SDS011;1687;49.540;8.574;2024-01-07T01:40:40;17.60;;;5.60;;
3347;SDS011;1687;49.540;8.574;2024-01-07T01:43:06;10.53;;;5.30;;
3347;SDS011;1687;49.540;8.574;2024-01-07T01:45:32;14.60;;;5.80;;
3347;SDS011;1687;49.540;8.574;2024-01-07T01:47:58;10.90;;;5.23;;
3347;SDS011;1687;49.540;8.574;2024-01-07T01:50:24;11.17;;;5.50;;
3347;SDS011;1687;49.540;8.574;2024-01-07T01:52:50;11.23;;;5.50;;
3347;SDS011;1687;49.540;8.574;2024-01-07T01:55:17;9.67;;;4.23;;
3347;SDS011;1687;49.540;8.574;2024-01-07T01:57:43;9.13;;;3.93;;
3347;SDS011;1687;49.540;8.574;2024-01-07T02:00:10;9.80;;;4.30;;
3347;SDS011;1687;49.540;8.574;2024-01-07T02:02:37;7.67;;;3.73;;
3347;SDS011;1687;49.540;8.574;2024-01-07T02:05:03;10.07;;;4.10;;
3347;SDS011;1687;49.540;8.574;2024-01-07T02:07:32;11.30;;;4.40;;
3347;SDS011;1687;49.540;8.574;2024-01-07T02:09:57;6.00;;;3.53;;
3347;SDS011;1687;49.540;8.574;2024-01-07T02:12:24;12.17;;;4.50;;
3347;SDS011;1687;49.540;8.574;2024-01-07T02:14:50;8.50;;;4.00;;
3347;SDS011;1687;49.540;8.574;2024-01-07T02:17:15;7.40;;;3.50;;
3347;SDS011;1687;49.540;8.574;2024-01-07T02:19:42;11.87;;;3.83;;
3347;SDS011;1687;49.540;8.574;2024-01-07T02:22:08;7.97;;;4.03;;
3347;SDS011;1687;49.540;8.574;2024-01-07T02:24:34;8.33;;;3.80;;
3347;SDS011;1687;49.540;8.574;2024-01-07T02:26:59;8.33;;;3.50;;
3347;SDS011;1687;49.540;8.574;2024-01-07T02:29:28;14.90;;;3.50;;
3347;SDS011;1687;49.540;8.574;2024-01-07T02:31:54;6.73;;;3.30;;
3347;SDS011;1687;49.540;8.574;2024-01-07T02:34:20;9.37;;;4.60;;
3347;SDS011;1687;49.540;8.574;2024-01-07T02:36:45;8.37;;;3.20;;
3347;SDS011;1687;49.540;8.574;2024-01-07T02:39:11;7.37;;;3.70;;
3347;SDS011;1687;49.540;8.574;2024-01-07T02:41:37;7.87;;;3.40;;
3347;SDS011;1687;49.540;8.574;2024-01-07T02:44:02;7.07;;;3.50;;
3347;SDS011;1687;49.540;8.574;2024-01-07T02:46:28;12.10;;;4.00;;
3347;SDS011;1687;49.540;8.574;2024-01-07T02:48:55;5.77;;;3.70;;
3347;SDS011;1687;49.540;8.574;2024-01-07T02:51:21;9.40;;;3.80;;
3347;SDS011;1687;49.540;8.574;2024-01-07T02:53:47;5.93;;;3.07;;
3347;SDS011;1687;49.540;8.574;2024-01-07T02:56:12;6.73;;;3.63;;
3347;SDS011;1687;49.540;8.574;2024-01-07T02:58:38;11.13;;;4.57;;
3347;SDS011;1687;49.540;8.574;2024-01-07T03:01:07;7.93;;;3.50;;
3347;SDS011;1687;49.540;8.574;2024-01-07T03:03:34;9.33;;;4.20;;
3347;SDS011;1687;49.540;8.574;2024-01-07T03:06:00;4.57;;;3.20;;
3347;SDS011;1687;49.540;8.574;2024-01-07T03:08:26;8.77;;;4.40;;
3347;SDS011;1687;49.540;8.574;2024-01-07T03:10:52;4.93;;;3.20;;
3347;SDS011;1687;49.540;8.574;2024-01-07T03:13:18;7.77;;;4.03;;
3347;SDS011;1687;49.540;8.574;2024-01-07T03:15:44;11.13;;;4.97;;
3347;SDS011;1687;49.540;8.574;2024-01-07T03:18:10;8.00;;;3.13;;
3347;SDS011;1687;49.540;8.574;2024-01-07T03:20:35;6.93;;;3.77;;
3347;SDS011;1687;49.540;8.574;2024-01-07T03:23:01;8.40;;;3.93;;
3347;SDS011;1687;49.540;8.574;2024-01-07T03:25:27;8.10;;;4.57;;
3347;SDS011;1687;49.540;8.574;2024-01-07T03:27:52;6.40;;;3.27;;
3347;SDS011;1687;49.540;8.574;2024-01-07T03:30:18;8.80;;;5.00;;
3347;SDS011;1687;49.540;8.574;2024-01-07T03:32:44;10.33;;;4.50;;
3347;SDS011;1687;49.540;8.574;2024-01-07T03:35:09;11.50;;;5.27;;
3347;SDS011;1687;49.540;8.574;2024-01-07T03:37:35;8.63;;;4.17;;
3347;SDS011;1687;49.540;8.574;2024-01-07T03:40:01;9.90;;;4.37;;
3347;SDS011;1687;49.540;8.574;2024-01-07T03:42:27;10.43;;;4.20;;
3347;SDS011;1687;49.540;8.574;2024-01-07T03:44:53;9.67;;;4.20;;
3347;SDS011;1687;49.540;8.574;2024-01-07T03:47:18;9.17;;;4.37;;
3347;SDS011;1687;49.540;8.574;2024-01-07T03:49:44;11.40;;;4.70;;
3347;SDS011;1687;49.540;8.574;2024-01-07T03:52:09;12.07;;;4.57;;
3347;SDS011;1687;49.540;8.574;2024-01-07T03:54:35;9.83;;;3.80;;
3347;SDS011;1687;49.540;8.574;2024-01-07T03:57:01;10.80;;;5.63;;
3347;SDS011;1687;49.540;8.574;2024-01-07T03:59:26;7.30;;;4.07;;
3347;SDS011;1687;49.540;8.574;2024-01-07T04:01:53;7.60;;;4.17;;
3347;SDS011;1687;49.540;8.574;2024-01-07T04:04:20;9.80;;;4.53;;
3347;SDS011;1687;49.540;8.574;2024-01-07T04:06:46;8.70;;;4.00;;
3347;SDS011;1687;49.540;8.574;2024-01-07T04:09:12;9.13;;;5.00;;
3347;SDS011;1687;49.540;8.574;2024-01-07T04:11:40;11.03;;;4.53;;
3347;SDS011;1687;49.540;8.574;2024-01-07T04:14:07;9.00;;;4.23;;
3347;SDS011;1687;49.540;8.574;2024-01-07T04:16:33;8.30;;;4.53;;
3347;SDS011;1687;49.540;8.574;2024-01-07T04:18:59;6.13;;;3.40;;
3347;SDS011;1687;49.540;8.574;2024-01-07T04:21:25;10.83;;;3.87;;
3347;SDS011;1687;49.540;8.574;2024-01-07T04:23:51;8.27;;;4.40;;
3347;SDS011;1687;49.540;8.574;2024-01-07T04:26:16;6.73;;;3.20;;
3347;SDS011;1687;49.540;8.574;2024-01-07T04:28:42;7.57;;;3.60;;
3347;SDS011;1687;49.540;8.574;2024-01-07T04:31:09;7.67;;;3.97;;
3347;SDS011;1687;49.540;8.574;2024-01-07T04:33:35;5.63;;;3.67;;
3347;SDS011;1687;49.540;8.574;2024-01-07T04:36:00;5.90;;;2.23;;
3347;SDS011;1687;49.540;8.574;2024-01-07T04:38:26;9.37;;;4.60;;
3347;SDS011;1687;49.540;8.574;2024-01-07T04:40:52;7.67;;;3.63;;
3347;SDS011;1687;49.540;8.574;2024-01-07T04:43:18;8.87;;;4.17;;
3347;SDS011;1687;49.540;8.574;2024-01-07T04:45:44;5.80;;;3.10;;
3347;SDS011;1687;49.540;8.574;2024-01-07T04:48:11;6.17;;;2.93;;
3347;SDS011;1687;49.540;8.574;2024-01-07T04:50:36;6.83;;;3.50;;
3347;SDS011;1687;49.540;8.574;2024-01-07T04:53:02;7.77;;;4.13;;
3347;SDS011;1687;49.540;8.574;2024-01-07T04:55:29;7.27;;;3.53;;
3347;SDS011;1687;49.540;8.574;2024-01-07T04:57:55;10.40;;;4.10;;
3347;SDS011;1687;49.540;8.574;2024-01-07T05:00:21;5.00;;;3.20;;
3347;SDS011;1687;49.540;8.574;2024-01-07T05:02:46;9.03;;;4.37;;
3347;SDS011;1687;49.540;8.574;2024-01-07T05:05:12;8.67;;;3.60;;
3347;SDS011;1687;49.540;8.574;2024-01-07T05:07:38;5.90;;;3.40;;
3347;SDS011;1687;49.540;8.574;2024-01-07T05:10:04;9.93;;;4.30;;
3347;SDS011;1687;49.540;8.574;2024-01-07T05:12:30;7.23;;;3.93;;
3347;SDS011;1687;49.540;8.574;2024-01-07T05:14:56;7.53;;;4.47;;
3347;SDS011;1687;49.540;8.574;2024-01-07T05:17:22;8.80;;;4.60;;
3347;SDS011;1687;49.540;8.574;2024-01-07T05:19:47;13.30;;;4.50;;
3347;SDS011;1687;49.540;8.574;2024-01-07T05:22:13;7.93;;;4.10;;
3347;SDS011;1687;49.540;8.574;2024-01-07T05:24:38;6.57;;;3.80;;
3347;SDS011;1687;49.540;8.574;2024-01-07T05:27:04;12.50;;;4.93;;
3347;SDS011;1687;49.540;8.574;2024-01-07T05:29:30;8.90;;;4.60;;
3347;SDS011;1687;49.540;8.574;2024-01-07T05:31:58;9.77;;;4.43;;
3347;SDS011;1687;49.540;8.574;2024-01-07T05:34:25;9.13;;;4.80;;
3347;SDS011;1687;49.540;8.574;2024-01-07T05:36:52;11.57;;;5.53;;
3347;SDS011;1687;49.540;8.574;2024-01-07T05:39:18;20.17;;;4.53;;
3347;SDS011;1687;49.540;8.574;2024-01-07T05:41:44;8.13;;;4.20;;
3347;SDS011;1687;49.540;8.574;2024-01-07T05:44:11;13.07;;;4.97;;
3347;SDS011;1687;49.540;8.574;2024-01-07T05:46:40;10.33;;;5.57;;
3347;SDS011;1687;49.540;8.574;2024-01-07T05:49:06;8.87;;;4.57;;
3347;SDS011;1687;49.540;8.574;2024-01-07T05:51:32;7.30;;;4.10;;
3347;SDS011;1687;49.540;8.574;2024-01-07T05:53:58;13.23;;;4.77;;
3347;SDS011;1687;49.540;8.574;2024-01-07T05:56:24;10.53;;;4.60;;
3347;SDS011;1687;49.540;8.574;2024-01-07T05:58:49;9.00;;;4.53;;
3347;SDS011;1687;49.540;8.574;2024-01-07T06:01:18;10.17;;;5.40;;
3347;SDS011;1687;49.540;8.574;2024-01-07T06:03:45;8.40;;;4.67;;
3347;SDS011;1687;49.540;8.574;2024-01-07T06:06:13;12.37;;;5.47;;
3347;SDS011;1687;49.540;8.574;2024-01-07T06:08:40;12.53;;;5.10;;
3347;SDS011;1687;49.540;8.574;2024-01-07T06:11:07;11.00;;;5.10;;
3347;SDS011;1687;49.540;8.574;2024-01-07T06:13:33;12.80;;;6.20;;
3347;SDS011;1687;49.540;8.574;2024-01-07T06:15:59;10.50;;;5.33;;
3347;SDS011;1687;49.540;8.574;2024-01-07T06:18:24;10.93;;;4.90;;
3347;SDS011;1687;49.540;8.574;2024-01-07T06:20:50;14.30;;;7.40;;
3347;SDS011;1687;49.540;8.574;2024-01-07T06:23:16;13.40;;;5.07;;
3347;SDS011;1687;49.540;8.574;2024-01-07T06:25:41;16.00;;;6.37;;
3347;SDS011;1687;49.540;8.574;2024-01-07T06:28:07;9.63;;;5.10;;
3347;SDS011;1687;49.540;8.574;2024-01-07T06:30:35;10.10;;;5.03;;
3347;SDS011;1687;49.540;8.574;2024-01-07T06:33:00;11.93;;;6.80;;
3347;SDS011;1687;49.540;8.574;2024-01-07T06:35:26;12.00;;;5.77;;
3347;SDS011;1687;49.540;8.574;2024-01-07T06:37:52;13.00;;;5.73;;
3347;SDS011;1687;49.540;8.574;2024-01-07T06:40:18;12.23;;;6.27;;
3347;SDS011;1687;49.540;8.574;2024-01-07T06:42:44;14.60;;;7.13;;
3347;SDS011;1687;49.540;8.574;2024-01-07T06:45:10;13.87;;;6.53;;
3347;SDS011;1687;49.540;8.574;2024-01-07T06:47:36;10.47;;;6.57;;
3347;SDS011;1687;49.540;8.574;2024-01-07T06:50:02;20.43;;;6.63;;
3347;SDS011;1687;49.540;8.574;2024-01-07T06:52:28;13.03;;;6.20;;
3347;SDS011;1687;49.540;8.574;2024-01-07T06:54:54;15.10;;;6.03;;
3347;SDS011;1687;49.540;8.574;2024-01-07T06:57:20;11.37;;;5.37;;
3347;SDS011;1687;49.540;8.574;2024-01-07T06:59:46;25.33;;;6.30;;
3347;SDS011;1687;49.540;8.574;2024-01-07T07:02:12;18.10;;;7.53;;
3347;SDS011;1687;49.540;8.574;2024-01-07T07:04:37;18.73;;;7.33;;
3347;SDS011;1687;49.540;8.574;2024-01-07T07:07:03;12.37;;;6.13;;
3347;SDS011;1687;49.540;8.574;2024-01-07T07:09:29;13.57;;;6.87;;
3347;SDS011;1687;49.540;8.574;2024-01-07T07:11:54;22.33;;;8.20;;
3347;SDS011;1687;49.540;8.574;2024-01-07T07:14:20;18.93;;;8.57;;
3347;SDS011;1687;49.540;8.574;2024-01-07T07:16:46;20.50;;;7.10;;
3347;SDS011;1687;49.540;8.574;2024-01-07T07:19:11;32.87;;;7.90;;
3347;SDS011;1687;49.540;8.574;2024-01-07T07:21:39;18.87;;;7.50;;
3347;SDS011;1687;49.540;8.574;2024-01-07T07:24:06;16.07;;;8.53;;
3347;SDS011;1687;49.540;8.574;2024-01-07T07:26:31;20.40;;;7.73;;
3347;SDS011;1687;49.540;8.574;2024-01-07T07:28:58;18.07;;;7.50;;
3347;SDS011;1687;49.540;8.574;2024-01-07T07:31:25;17.63;;;8.43;;
3347;SDS011;1687;49.540;8.574;2024-01-07T07:33:51;16.53;;;7.07;;
3347;SDS011;1687;49.540;8.574;2024-01-07T07:36:17;17.00;;;8.93;;
3347;SDS011;1687;49.540;8.574;2024-01-07T07:38:42;16.90;;;8.63;;
3347;SDS011;1687;49.540;8.574;2024-01-07T07:41:08;20.90;;;8.57;;
3347;SDS011;1687;49.540;8.574;2024-01-07T07:43:34;17.60;;;9.33;;
3347;SDS011;1687;49.540;8.574;2024-01-07T07:45:59;19.93;;;9.07;;
3347;SDS011;1687;49.540;8.574;2024-01-07T07:48:28;16.77;;;8.50;;
3347;SDS011;1687;49.540;8.574;2024-01-07T07:50:54;20.10;;;9.50;;
3347;SDS011;1687;49.540;8.574;2024-01-07T07:53:19;24.80;;;8.87;;
3347;SDS011;1687;49.540;8.574;2024-01-07T07:55:45;24.53;;;11.03;;
3347;SDS011;1687;49.540;8.574;2024-01-07T07:58:11;30.03;;;9.57;;
3347;SDS011;1687;49.540;8.574;2024-01-07T08:00:36;17.30;;;9.50;;
3347;SDS011;1687;49.540;8.574;2024-01-07T08:03:03;24.73;;;9.60;;
3347;SDS011;1687;49.540;8.574;2024-01-07T08:05:29;21.83;;;10.27;;
3347;SDS011;1687;49.540;8.574;2024-01-07T08:07:54;27.83;;;10.50;;
3347;SDS011;1687;49.540;8.574;2024-01-07T08:10:21;17.90;;;9.20;;
3347;SDS011;1687;49.540;8.574;2024-01-07T08:12:47;26.87;;;11.40;;
3347;SDS011;1687;49.540;8.574;2024-01-07T08:15:14;24.50;;;9.07;;
3347;SDS011;1687;49.540;8.574;2024-01-07T08:17:40;19.90;;;10.17;;
3347;SDS011;1687;49.540;8.574;2024-01-07T08:20:06;19.87;;;9.80;;
3347;SDS011;1687;49.540;8.574;2024-01-07T08:22:32;22.50;;;9.70;;
3347;SDS011;1687;49.540;8.574;2024-01-07T08:24:58;22.20;;;9.33;;
3347;SDS011;1687;49.540;8.574;2024-01-07T08:27:23;22.93;;;9.53;;
3347;SDS011;1687;49.540;8.574;2024-01-07T08:29:49;23.03;;;9.17;;
3347;SDS011;1687;49.540;8.574;2024-01-07T08:32:15;17.30;;;8.47;;
3347;SDS011;1687;49.540;8.574;2024-01-07T08:34:40;16.83;;;9.00;;
3347;SDS011;1687;49.540;8.574;2024-01-07T08:37:07;18.77;;;9.20;;
3347;SDS011;1687;49.540;8.574;2024-01-07T08:39:34;16.57;;;8.50;;
3347;SDS011;1687;49.540;8.574;2024-01-07T08:42:00;19.90;;;9.50;;
3347;SDS011;1687;49.540;8.574;2024-01-07T08:44:26;21.80;;;9.60;;
3347;SDS011;1687;49.540;8.574;2024-01-07T08:46:51;18.27;;;8.67;;
3347;SDS011;1687;49.540;8.574;2024-01-07T08:49:17;17.67;;;8.50;;
3347;SDS011;1687;49.540;8.574;2024-01-07T08:51:43;17.00;;;8.60;;
3347;SDS011;1687;49.540;8.574;2024-01-07T08:54:09;14.90;;;8.70;;
3347;SDS011;1687;49.540;8.574;2024-01-07T08:56:34;18.13;;;8.10;;
3347;SDS011;1687;49.540;8.574;2024-01-07T08:59:00;19.70;;;9.37;;
3347;SDS011;1687;49.540;8.574;2024-01-07T09:01:26;18.53;;;8.40;;
3347;SDS011;1687;49.540;8.574;2024-01-07T09:03:51;15.23;;;7.87;;
3347;SDS011;1687;49.540;8.574;2024-01-07T09:06:17;14.90;;;7.70;;
3347;SDS011;1687;49.540;8.574;2024-01-07T09:08:43;14.30;;;8.50;;
3347;SDS011;1687;49.540;8.574;2024-01-07T09:11:08;11.80;;;6.30;;
3347;SDS011;1687;49.540;8.574;2024-01-07T09:13:37;24.47;;;10.40;;
3347;SDS011;1687;49.540;8.574;2024-01-07T09:16:03;14.70;;;7.53;;
3347;SDS011;1687;49.540;8.574;2024-01-07T09:18:29;13.60;;;7.10;;
3347;SDS011;1687;49.540;8.574;2024-01-07T09:20:55;16.77;;;8.00;;
3347;SDS011;1687;49.540;8.574;2024-01-07T09:23:21;13.10;;;6.63;;
3347;SDS011;1687;49.540;8.574;2024-01-07T09:25:47;17.20;;;7.03;;
3347;SDS011;1687;49.540;8.574;2024-01-07T09:28:14;15.93;;;8.13;;
3347;SDS011;1687;49.540;8.574;2024-01-07T09:30:40;15.63;;;8.17;;
3347;SDS011;1687;49.540;8.574;2024-01-07T09:33:05;13.17;;;6.73;;
3347;SDS011;1687;49.540;8.574;2024-01-07T09:35:31;14.47;;;8.47;;
3347;SDS011;1687;49.540;8.574;2024-01-07T09:37:57;16.80;;;7.30;;
3347;SDS011;1687;49.540;8.574;2024-01-07T09:40:23;16.50;;;7.13;;
3347;SDS011;1687;49.540;8.574;2024-01-07T09:42:48;14.00;;;6.53;;
3347;SDS011;1687;49.540;8.574;2024-01-07T09:45:15;16.33;;;6.43;;
3347;SDS011;1687;49.540;8.574;2024-01-07T09:47:44;21.40;;;7.97;;
3347;SDS011;1687;49.540;8.574;2024-01-07T09:50:10;19.07;;;9.03;;
3347;SDS011;1687;49.540;8.574;2024-01-07T09:52:38;18.43;;;7.40;;
3347;SDS011;1687;49.540;8.574;2024-01-07T09:55:09;16.90;;;7.13;;
3347;SDS011;1687;49.540;8.574;2024-01-07T09:57:38;13.57;;;6.70;;
3347;SDS011;1687;49.540;8.574;2024-01-07T10:00:08;12.93;;;6.43;;
3347;SDS011;1687;49.540;8.574;2024-01-07T10:02:34;16.80;;;7.70;;
3347;SDS011;1687;49.540;8.574;2024-01-07T10:05:01;16.07;;;7.90;;
3347;SDS011;1687;49.540;8.574;2024-01-07T10:07:27;14.57;;;6.97;;
3347;SDS011;1687;49.540;8.574;2024-01-07T10:09:53;16.77;;;8.13;;
3347;SDS011;1687;49.540;8.574;2024-01-07T10:12:24;13.37;;;6.70;;
3347;SDS011;1687;49.540;8.574;2024-01-07T10:14:50;15.23;;;7.00;;
3347;SDS011;1687;49.540;8.574;2024-01-07T10:17:16;10.33;;;5.87;;
3347;SDS011;1687;49.540;8.574;2024-01-07T10:19:45;12.60;;;6.47;;
3347;SDS011;1687;49.540;8.574;2024-01-07T10:22:11;17.37;;;8.67;;
3347;SDS011;1687;49.540;8.574;2024-01-07T10:24:39;18.47;;;8.70;;
3347;SDS011;1687;49.540;8.574;2024-01-07T10:27:06;15.47;;;8.57;;
3347;SDS011;1687;49.540;8.574;2024-01-07T10:29:32;19.60;;;8.00;;
3347;SDS011;1687;49.540;8.574;2024-01-07T10:31:59;19.80;;;8.47;;
3347;SDS011;1687;49.540;8.574;2024-01-07T10:34:33;14.27;;;7.33;;
3347;SDS011;1687;49.540;8.574;2024-01-07T10:37:02;13.83;;;7.07;;
3347;SDS011;1687;49.540;8.574;2024-01-07T10:39:32;15.93;;;6.37;;
3347;SDS011;1687;49.540;8.574;2024-01-07T10:41:58;14.63;;;6.10;;
3347;SDS011;1687;49.540;8.574;2024-01-07T10:44:31;14.50;;;7.03;;
3347;SDS011;1687;49.540;8.574;2024-01-07T10:46:58;14.53;;;7.07;;
3347;SDS011;1687;49.540;8.574;2024-01-07T10:49:26;12.10;;;6.07;;
3347;SDS011;1687;49.540;8.574;2024-01-07T10:54:29;16.60;;;7.23;;
3347;SDS011;1687;49.540;8.574;2024-01-07T10:56:59;16.20;;;7.60;;
3347;SDS011;1687;49.540;8.574;2024-01-07T10:59:38;9.47;;;5.77;;
3347;SDS011;1687;49.540;8.574;2024-01-07T11:02:04;14.47;;;6.70;;
3347;SDS011;1687;49.540;8.574;2024-01-07T11:04:47;9.93;;;5.50;;
3347;SDS011;1687;49.540;8.574;2024-01-07T11:07:53;16.60;;;6.17;;
3347;SDS011;1687;49.540;8.574;2024-01-07T11:10:50;13.30;;;6.00;;
3347;SDS011;1687;49.540;8.574;2024-01-07T11:13:35;12.93;;;5.20;;
3347;SDS011;1687;49.540;8.574;2024-01-07T11:16:06;20.93;;;9.07;;
3347;SDS011;1687;49.540;8.574;2024-01-07T11:18:40;25.07;;;12.53;;
3347;SDS011;1687;49.540;8.574;2024-01-07T11:21:19;13.17;;;7.80;;
3347;SDS011;1687;49.540;8.574;2024-01-07T11:23:49;14.47;;;7.37;;
3347;SDS011;1687;49.540;8.574;2024-01-07T11:26:17;11.40;;;6.23;;
3347;SDS011;1687;49.540;8.574;2024-01-07T11:28:55;14.73;;;6.60;;
3347;SDS011;1687;49.540;8.574;2024-01-07T11:34:06;11.00;;;6.27;;
3347;SDS011;1687;49.540;8.574;2024-01-07T11:36:36;12.00;;;6.20;;
3347;SDS011;1687;49.540;8.574;2024-01-07T11:39:02;10.50;;;6.57;;
3347;SDS011;1687;49.540;8.574;2024-01-07T11:41:32;16.97;;;7.50;;
3347;SDS011;1687;49.540;8.574;2024-01-07T11:43:59;11.50;;;6.90;;
3347;SDS011;1687;49.540;8.574;2024-01-07T11:46:26;11.93;;;6.13;;
3347;SDS011;1687;49.540;8.574;2024-01-07T11:48:53;18.37;;;8.33;;
3347;SDS011;1687;49.540;8.574;2024-01-07T11:51:28;13.53;;;6.83;;
3347;SDS011;1687;49.540;8.574;2024-01-07T11:53:57;11.13;;;6.10;;
3347;SDS011;1687;49.540;8.574;2024-01-07T11:56:24;14.27;;;7.23;;
3347;SDS011;1687;49.540;8.574;2024-01-07T11:58:51;13.43;;;7.00;;
3347;SDS011;1687;49.540;8.574;2024-01-07T12:01:17;11.40;;;5.70;;
3347;SDS011;1687;49.540;8.574;2024-01-07T12:03:44;11.47;;;5.60;;
3347;SDS011;1687;49.540;8.574;2024-01-07T12:06:17;19.33;;;6.53;;
3347;SDS011;1687;49.540;8.574;2024-01-07T12:08:45;15.13;;;6.43;;
3347;SDS011;1687;49.540;8.574;2024-01-07T12:11:11;14.87;;;6.43;;
3347;SDS011;1687;49.540;8.574;2024-01-07T12:13:40;13.63;;;6.13;;
3347;SDS011;1687;49.540;8.574;2024-01-07T12:16:07;14.80;;;7.63;;
3347;SDS011;1687;49.540;8.574;2024-01-07T12:18:39;19.00;;;8.10;;
3347;SDS011;1687;49.540;8.574;2024-01-07T12:21:05;13.57;;;6.90;;
3347;SDS011;1687;49.540;8.574;2024-01-07T12:23:35;13.87;;;7.83;;
3347;SDS011;1687;49.540;8.574;2024-01-07T12:26:08;7.67;;;4.30;;
3347;SDS011;1687;49.540;8.574;2024-01-07T12:28:37;14.60;;;7.07;;
3347;SDS011;1687;49.540;8.574;2024-01-07T12:31:04;20.63;;;6.67;;
3347;SDS011;1687;49.540;8.574;2024-01-07T12:33:30;15.20;;;7.23;;
3347;SDS011;1687;49.540;8.574;2024-01-07T12:35:57;14.70;;;7.60;;
3347;SDS011;1687;49.540;8.574;2024-01-07T12:38:24;16.63;;;7.70;;
3347;SDS011;1687;49.540;8.574;2024-01-07T12:40:50;13.93;;;7.80;;
3347;SDS011;1687;49.540;8.574;2024-01-07T12:43:19;13.77;;;5.97;;
3347;SDS011;1687;49.540;8.574;2024-01-07T12:45:47;17.40;;;8.40;;
3347;SDS011;1687;49.540;8.574;2024-01-07T12:48:13;15.67;;;7.63;;
3347;SDS011;1687;49.540;8.574;2024-01-07T12:50:39;14.50;;;7.80;;
3347;SDS011;1687;49.540;8.574;2024-01-07T12:53:05;17.13;;;7.53;;
3347;SDS011;1687;49.540;8.574;2024-01-07T12:55:31;16.03;;;7.70;;
3347;SDS011;1687;49.540;8.574;2024-01-07T12:57:58;17.30;;;8.23;;
3347;SDS011;1687;49.540;8.574;2024-01-07T13:00:24;14.83;;;6.77;;
3347;SDS011;1687;49.540;8.574;2024-01-07T13:02:51;15.40;;;7.17;;
3347;SDS011;1687;49.540;8.574;2024-01-07T13:05:17;14.10;;;6.80;;
3347;SDS011;1687;49.540;8.574;2024-01-07T13:07:43;19.33;;;6.10;;
3347;SDS011;1687;49.540;8.574;2024-01-07T13:10:09;14.07;;;7.67;;
3347;SDS011;1687;49.540;8.574;2024-01-07T13:12:35;14.10;;;7.07;;
3347;SDS011;1687;49.540;8.574;2024-01-07T13:15:01;14.77;;;7.03;;
3347;SDS011;1687;49.540;8.574;2024-01-07T13:17:28;19.63;;;7.43;;
3347;SDS011;1687;49.540;8.574;2024-01-07T13:19:55;8.90;;;4.67;;
3347;SDS011;1687;49.540;8.574;2024-01-07T13:22:21;19.97;;;7.00;;
3347;SDS011;1687;49.540;8.574;2024-01-07T13:24:47;10.70;;;6.20;;
3347;SDS011;1687;49.540;8.574;2024-01-07T13:27:13;11.20;;;6.30;;
3347;SDS011;1687;49.540;8.574;2024-01-07T13:29:38;14.50;;;6.57;;
3347;SDS011;1687;49.540;8.574;2024-01-07T13:32:05;13.53;;;6.57;;
3347;SDS011;1687;49.540;8.574;2024-01-07T13:34:31;17.70;;;7.10;;
3347;SDS011;1687;49.540;8.574;2024-01-07T13:36:56;14.53;;;6.50;;
3347;SDS011;1687;49.540;8.574;2024-01-07T13:39:22;12.33;;;6.93;;
3347;SDS011;1687;49.540;8.574;2024-01-07T13:41:48;19.50;;;7.27;;
3347;SDS011;1687;49.540;8.574;2024-01-07T13:44:14;21.30;;;7.93;;
3347;SDS011;1687;49.540;8.574;2024-01-07T13:46:51;13.90;;;7.60;;
3347;SDS011;1687;49.540;8.574;2024-01-07T13:49:17;13.33;;;7.20;;
3347;SDS011;1687;49.540;8.574;2024-01-07T13:51:43;16.60;;;7.70;;
3347;SDS011;1687;49.540;8.574;2024-01-07T13:54:09;16.03;;;7.73;;
3347;SDS011;1687;49.540;8.574;2024-01-07T13:56:38;15.23;;;7.33;;
3347;SDS011;1687;49.540;8.574;2024-01-07T13:59:07;13.63;;;7.07;;
3347;SDS011;1687;49.540;8.574;2024-01-07T14:01:33;17.43;;;7.90;;
3347;SDS011;1687;49.540;8.574;2024-01-07T14:03:59;20.03;;;8.80;;
3347;SDS011;1687;49.540;8.574;2024-01-07T14:06:24;16.33;;;7.00;;
3347;SDS011;1687;49.540;8.574;2024-01-07T14:08:50;20.50;;;7.97;;
3347;SDS011;1687;49.540;8.574;2024-01-07T14:11:17;10.93;;;6.13;;
3347;SDS011;1687;49.540;8.574;2024-01-07T14:13:43;13.10;;;7.07;;
3347;SDS011;1687;49.540;8.574;2024-01-07T14:16:11;13.90;;;6.37;;
3347;SDS011;1687;49.540;8.574;2024-01-07T14:18:37;13.53;;;7.00;;
3347;SDS011;1687;49.540;8.574;2024-01-07T14:21:02;14.13;;;7.43;;
3347;SDS011;1687;49.540;8.574;2024-01-07T14:23:28;19.03;;;6.57;;
3347;SDS011;1687;49.540;8.574;2024-01-07T14:25:56;14.23;;;7.47;;
3347;SDS011;1687;49.540;8.574;2024-01-07T14:28:22;13.30;;;6.60;;
3347;SDS011;1687;49.540;8.574;2024-01-07T14:30:48;12.53;;;5.37;;
3347;SDS011;1687;49.540;8.574;2024-01-07T14:33:14;11.27;;;6.33;;
3347;SDS011;1687;49.540;8.574;2024-01-07T14:35:40;20.23;;;6.43;;
3347;SDS011;1687;49.540;8.574;2024-01-07T14:38:05;14.80;;;7.67;;
3347;SDS011;1687;49.540;8.574;2024-01-07T14:40:32;15.60;;;7.33;;
3347;SDS011;1687;49.540;8.574;2024-01-07T14:42:57;13.80;;;5.20;;
3347;SDS011;1687;49.540;8.574;2024-01-07T14:45:23;14.33;;;6.27;;
3347;SDS011;1687;49.540;8.574;2024-01-07T14:47:52;12.63;;;6.63;;
3347;SDS011;1687;49.540;8.574;2024-01-07T14:50:19;12.10;;;5.83;;
3347;SDS011;1687;49.540;8.574;2024-01-07T14:52:46;19.13;;;8.40;;
3347;SDS011;1687;49.540;8.574;2024-01-07T14:55:12;9.70;;;6.37;;
3347;SDS011;1687;49.540;8.574;2024-01-07T14:57:39;15.30;;;9.20;;
3347;SDS011;1687;49.540;8.574;2024-01-07T15:00:06;14.03;;;7.37;;
3347;SDS011;1687;49.540;8.574;2024-01-07T15:02:32;12.03;;;5.57;;
3347;SDS011;1687;49.540;8.574;2024-01-07T15:04:58;20.43;;;7.80;;
3347;SDS011;1687;49.540;8.574;2024-01-07T15:07:24;11.83;;;5.50;;